sensor_id;sensor_type;location;lat;lon;timestamp;P1;durP1;ratioP1;P2;durP2;ratioP2
16737;SDS011;17906;47.684;10.806;2023-01-30T00:00:48;21.60;;;7.40;;
16737;SDS011;17906;47.684;10.806;2023-01-30T00:03:16;15.73;;;7.20;;
16737;SDS011;17906;47.684;10.806;2023-01-30T00:05:42;22.33;;;7.73;;
16737;SDS011;17906;47.684;10.806;2023-01-30T00:08:10;20.93;;;7.37;;
16737;SDS011;17906;47.684;10.806;2023-01-30T00:10:37;18.63;;;7.60;;
16737;SDS011;17906;47.684;10.806;2023-01-30T00:13:04;18.50;;;6.73;;
16737;SDS011;17906;47.684;10.806;2023-01-30T00:15:30;23.37;;;6.97;;
16737;SDS011;17906;47.684;10.806;2023-01-30T00:17:57;18.20;;;6.67;;
16737;SDS011;17906;47.684;10.806;2023-01-30T00:20:24;21.60;;;7.43;;
16737;SDS011;17906;47.684;10.806;2023-01-30T00:22:50;18.57;;;6.83;;
16737;SDS011;17906;47.684;10.806;2023-01-30T00:25:18;17.40;;;6.50;;
16737;SDS011;17906;47.684;10.806;2023-01-30T00:27:45;17.80;;;6.33;;
16737;SDS011;17906;47.684;10.806;2023-01-30T00:30:11;23.47;;;7.83;;
16737;SDS011;17906;47.684;10.806;2023-01-30T00:32:38;19.93;;;7.67;;
16737;SDS011;17906;47.684;10.806;2023-01-30T00:35:05;22.20;;;6.87;;
16737;SDS011;17906;47.684;10.806;2023-01-30T00:37:32;20.77;;;7.57;;
16737;SDS011;17906;47.684;10.806;2023-01-30T00:39:59;21.57;;;7.00;;
16737;SDS011;17906;47.684;10.806;2023-01-30T00:42:27;18.70;;;6.90;;
16737;SDS011;17906;47.684;10.806;2023-01-30T00:45:11;23.23;;;7.87;;
16737;SDS011;17906;47.684;10.806;2023-01-30T00:47:56;21.57;;;7.73;;
16737;SDS011;17906;47.684;10.806;2023-01-30T00:50:23;20.03;;;6.93;;
16737;SDS011;17906;47.684;10.806;2023-01-30T00:53:06;22.83;;;7.73;;
16737;SDS011;17906;47.684;10.806;2023-01-30T00:55:33;23.20;;;7.67;;
16737;SDS011;17906;47.684;10.806;2023-01-30T00:58:01;19.97;;;6.80;;
16737;SDS011;17906;47.684;10.806;2023-01-30T01:00:27;23.37;;;6.80;;
16737;SDS011;17906;47.684;10.806;2023-01-30T01:02:54;20.83;;;6.80;;
16737;SDS011;17906;47.684;10.806;2023-01-30T01:05:21;30.63;;;7.63;;
16737;SDS011;17906;47.684;10.806;2023-01-30T01:07:47;18.27;;;6.37;;
16737;SDS011;17906;47.684;10.806;2023-01-30T01:10:14;18.23;;;6.00;;
16737;SDS011;17906;47.684;10.806;2023-01-30T01:12:41;21.80;;;6.07;;
16737;SDS011;17906;47.684;10.806;2023-01-30T01:15:10;16.73;;;6.13;;
16737;SDS011;17906;47.684;10.806;2023-01-30T01:17:38;17.77;;;5.40;;
16737;SDS011;17906;47.684;10.806;2023-01-30T01:20:06;17.03;;;5.77;;
16737;SDS011;17906;47.684;10.806;2023-01-30T01:22:34;16.40;;;6.23;;
16737;SDS011;17906;47.684;10.806;2023-01-30T01:25:01;20.17;;;6.10;;
16737;SDS011;17906;47.684;10.806;2023-01-30T01:27:28;17.13;;;6.50;;
16737;SDS011;17906;47.684;10.806;2023-01-30T01:29:55;16.13;;;5.07;;
16737;SDS011;17906;47.684;10.806;2023-01-30T01:32:23;17.83;;;5.70;;
16737;SDS011;17906;47.684;10.806;2023-01-30T01:34:49;17.07;;;6.03;;
16737;SDS011;17906;47.684;10.806;2023-01-30T01:37:16;14.00;;;5.63;;
16737;SDS011;17906;47.684;10.806;2023-01-30T01:39:42;13.40;;;4.90;;
16737;SDS011;17906;47.684;10.806;2023-01-30T01:42:28;15.17;;;5.03;;
16737;SDS011;17906;47.684;10.806;2023-01-30T01:45:02;13.30;;;4.67;;
16737;SDS011;17906;47.684;10.806;2023-01-30T01:47:40;9.63;;;4.27;;
16737;SDS011;17906;47.684;10.806;2023-01-30T01:50:10;12.53;;;4.63;;
16737;SDS011;17906;47.684;10.806;2023-01-30T01:52:41;12.67;;;4.97;;
16737;SDS011;17906;47.684;10.806;2023-01-30T01:55:08;12.37;;;4.20;;
16737;SDS011;17906;47.684;10.806;2023-01-30T01:57:36;10.43;;;4.47;;
16737;SDS011;17906;47.684;10.806;2023-01-30T02:00:06;10.87;;;4.23;;
16737;SDS011;17906;47.684;10.806;2023-01-30T02:02:37;12.30;;;4.30;;
16737;SDS011;17906;47.684;10.806;2023-01-30T02:05:07;11.90;;;3.93;;
16737;SDS011;17906;47.684;10.806;2023-01-30T02:07:36;16.63;;;5.67;;
16737;SDS011;17906;47.684;10.806;2023-01-30T02:10:05;9.97;;;4.47;;
16737;SDS011;17906;47.684;10.806;2023-01-30T02:12:33;12.43;;;5.07;;
16737;SDS011;17906;47.684;10.806;2023-01-30T02:15:00;17.10;;;5.70;;
16737;SDS011;17906;47.684;10.806;2023-01-30T02:17:29;14.77;;;5.37;;
16737;SDS011;17906;47.684;10.806;2023-01-30T02:19:57;15.13;;;5.03;;
16737;SDS011;17906;47.684;10.806;2023-01-30T02:25:34;17.77;;;5.33;;
16737;SDS011;17906;47.684;10.806;2023-01-30T02:31:37;10.30;;;4.03;;
16737;SDS011;17906;47.684;10.806;2023-01-30T02:34:15;14.43;;;5.13;;
16737;SDS011;17906;47.684;10.806;2023-01-30T02:36:58;12.37;;;4.87;;
16737;SDS011;17906;47.684;10.806;2023-01-30T02:39:33;17.87;;;5.10;;
16737;SDS011;17906;47.684;10.806;2023-01-30T02:42:10;14.27;;;4.47;;
16737;SDS011;17906;47.684;10.806;2023-01-30T02:44:48;13.73;;;5.13;;
16737;SDS011;17906;47.684;10.806;2023-01-30T02:47:22;12.53;;;4.50;;
16737;SDS011;17906;47.684;10.806;2023-01-30T02:49:53;11.07;;;4.43;;
16737;SDS011;17906;47.684;10.806;2023-01-30T02:52:26;12.70;;;4.60;;
16737;SDS011;17906;47.684;10.806;2023-01-30T02:54:54;14.17;;;5.00;;
16737;SDS011;17906;47.684;10.806;2023-01-30T02:57:21;12.53;;;4.83;;
16737;SDS011;17906;47.684;10.806;2023-01-30T02:59:50;16.00;;;4.60;;
16737;SDS011;17906;47.684;10.806;2023-01-30T03:02:26;13.90;;;5.47;;
16737;SDS011;17906;47.684;10.806;2023-01-30T03:08:03;10.63;;;3.93;;
16737;SDS011;17906;47.684;10.806;2023-01-30T03:10:41;10.30;;;3.53;;
16737;SDS011;17906;47.684;10.806;2023-01-30T03:13:13;10.93;;;4.40;;
16737;SDS011;17906;47.684;10.806;2023-01-30T03:15:49;8.87;;;3.73;;
16737;SDS011;17906;47.684;10.806;2023-01-30T03:18:22;7.17;;;3.07;;
16737;SDS011;17906;47.684;10.806;2023-01-30T03:20:48;13.63;;;4.13;;
16737;SDS011;17906;47.684;10.806;2023-01-30T03:23:15;14.63;;;4.40;;
16737;SDS011;17906;47.684;10.806;2023-01-30T03:25:42;14.33;;;4.23;;
16737;SDS011;17906;47.684;10.806;2023-01-30T03:28:13;13.77;;;4.80;;
16737;SDS011;17906;47.684;10.806;2023-01-30T03:30:41;12.13;;;4.70;;
16737;SDS011;17906;47.684;10.806;2023-01-30T03:33:08;11.70;;;4.13;;
16737;SDS011;17906;47.684;10.806;2023-01-30T03:35:37;11.70;;;4.77;;
16737;SDS011;17906;47.684;10.806;2023-01-30T03:38:03;11.87;;;4.27;;
16737;SDS011;17906;47.684;10.806;2023-01-30T03:40:30;9.63;;;4.07;;
16737;SDS011;17906;47.684;10.806;2023-01-30T03:42:57;15.47;;;5.03;;
16737;SDS011;17906;47.684;10.806;2023-01-30T03:45:23;12.13;;;4.87;;
16737;SDS011;17906;47.684;10.806;2023-01-30T03:47:50;11.33;;;4.03;;
16737;SDS011;17906;47.684;10.806;2023-01-30T03:50:17;6.80;;;3.00;;
16737;SDS011;17906;47.684;10.806;2023-01-30T03:52:44;10.60;;;3.90;;
16737;SDS011;17906;47.684;10.806;2023-01-30T03:55:11;10.27;;;3.33;;
16737;SDS011;17906;47.684;10.806;2023-01-30T03:57:38;9.50;;;4.27;;
16737;SDS011;17906;47.684;10.806;2023-01-30T04:00:05;8.17;;;2.97;;
16737;SDS011;17906;47.684;10.806;2023-01-30T04:02:32;9.13;;;3.30;;
16737;SDS011;17906;47.684;10.806;2023-01-30T04:04:59;12.37;;;3.00;;
16737;SDS011;17906;47.684;10.806;2023-01-30T04:07:27;9.07;;;3.50;;
16737;SDS011;17906;47.684;10.806;2023-01-30T04:09:55;9.70;;;3.33;;
16737;SDS011;17906;47.684;10.806;2023-01-30T04:12:22;7.83;;;3.17;;
16737;SDS011;17906;47.684;10.806;2023-01-30T04:14:48;8.90;;;3.53;;
16737;SDS011;17906;47.684;10.806;2023-01-30T04:17:15;11.90;;;4.47;;
16737;SDS011;17906;47.684;10.806;2023-01-30T04:19:41;20.27;;;6.60;;
16737;SDS011;17906;47.684;10.806;2023-01-30T04:22:08;13.87;;;5.10;;
16737;SDS011;17906;47.684;10.806;2023-01-30T04:24:35;16.47;;;6.13;;
16737;SDS011;17906;47.684;10.806;2023-01-30T04:27:02;26.70;;;10.37;;
16737;SDS011;17906;47.684;10.806;2023-01-30T04:29:29;23.43;;;8.10;;
16737;SDS011;17906;47.684;10.806;2023-01-30T04:31:56;24.83;;;8.77;;
16737;SDS011;17906;47.684;10.806;2023-01-30T04:34:22;22.40;;;8.83;;
16737;SDS011;17906;47.684;10.806;2023-01-30T04:36:49;18.73;;;6.30;;
16737;SDS011;17906;47.684;10.806;2023-01-30T04:39:15;14.17;;;4.47;;
16737;SDS011;17906;47.684;10.806;2023-01-30T04:41:42;17.90;;;6.07;;
16737;SDS011;17906;47.684;10.806;2023-01-30T04:44:10;15.47;;;5.80;;
16737;SDS011;17906;47.684;10.806;2023-01-30T04:46:36;18.07;;;5.43;;
16737;SDS011;17906;47.684;10.806;2023-01-30T04:49:03;14.17;;;5.67;;
16737;SDS011;17906;47.684;10.806;2023-01-30T04:51:29;15.83;;;5.60;;
16737;SDS011;17906;47.684;10.806;2023-01-30T04:53:56;12.87;;;5.40;;
16737;SDS011;17906;47.684;10.806;2023-01-30T04:56:22;16.67;;;6.17;;
16737;SDS011;17906;47.684;10.806;2023-01-30T04:58:49;16.40;;;5.47;;
16737;SDS011;17906;47.684;10.806;2023-01-30T05:01:20;16.60;;;5.10;;
16737;SDS011;17906;47.684;10.806;2023-01-30T05:03:49;13.47;;;4.90;;
16737;SDS011;17906;47.684;10.806;2023-01-30T05:06:16;14.87;;;4.63;;
16737;SDS011;17906;47.684;10.806;2023-01-30T05:08:43;15.03;;;4.87;;
16737;SDS011;17906;47.684;10.806;2023-01-30T05:11:09;12.50;;;4.83;;
16737;SDS011;17906;47.684;10.806;2023-01-30T05:13:36;15.40;;;5.70;;
16737;SDS011;17906;47.684;10.806;2023-01-30T05:16:02;15.47;;;5.43;;
16737;SDS011;17906;47.684;10.806;2023-01-30T05:18:31;13.87;;;5.63;;
16737;SDS011;17906;47.684;10.806;2023-01-30T05:21:02;12.47;;;4.73;;
16737;SDS011;17906;47.684;10.806;2023-01-30T05:23:29;18.77;;;6.20;;
16737;SDS011;17906;47.684;10.806;2023-01-30T05:25:56;20.53;;;6.23;;
16737;SDS011;17906;47.684;10.806;2023-01-30T05:28:23;18.07;;;5.60;;
16737;SDS011;17906;47.684;10.806;2023-01-30T05:30:50;14.10;;;5.97;;
16737;SDS011;17906;47.684;10.806;2023-01-30T05:33:16;21.93;;;6.77;;
16737;SDS011;17906;47.684;10.806;2023-01-30T05:35:46;13.77;;;5.23;;
16737;SDS011;17906;47.684;10.806;2023-01-30T05:38:12;15.80;;;4.57;;
16737;SDS011;17906;47.684;10.806;2023-01-30T05:40:39;10.17;;;4.80;;
16737;SDS011;17906;47.684;10.806;2023-01-30T05:43:06;12.90;;;4.63;;
16737;SDS011;17906;47.684;10.806;2023-01-30T05:45:33;24.47;;;8.70;;
16737;SDS011;17906;47.684;10.806;2023-01-30T05:48:00;23.43;;;8.30;;
16737;SDS011;17906;47.684;10.806;2023-01-30T05:50:27;19.13;;;7.07;;
16737;SDS011;17906;47.684;10.806;2023-01-30T05:52:55;16.83;;;5.80;;
16737;SDS011;17906;47.684;10.806;2023-01-30T05:55:22;13.53;;;5.07;;
16737;SDS011;17906;47.684;10.806;2023-01-30T05:57:48;13.67;;;5.60;;
16737;SDS011;17906;47.684;10.806;2023-01-30T06:00:15;13.53;;;4.57;;
16737;SDS011;17906;47.684;10.806;2023-01-30T06:02:42;9.50;;;3.67;;
16737;SDS011;17906;47.684;10.806;2023-01-30T06:05:09;11.97;;;5.03;;
16737;SDS011;17906;47.684;10.806;2023-01-30T06:07:35;10.47;;;3.70;;
16737;SDS011;17906;47.684;10.806;2023-01-30T06:10:04;10.80;;;3.83;;
16737;SDS011;17906;47.684;10.806;2023-01-30T06:12:31;9.07;;;4.20;;
16737;SDS011;17906;47.684;10.806;2023-01-30T06:14:57;9.17;;;4.33;;
16737;SDS011;17906;47.684;10.806;2023-01-30T06:17:24;12.37;;;4.60;;
16737;SDS011;17906;47.684;10.806;2023-01-30T06:19:50;11.80;;;4.33;;
16737;SDS011;17906;47.684;10.806;2023-01-30T06:22:17;16.10;;;4.90;;
16737;SDS011;17906;47.684;10.806;2023-01-30T06:24:43;16.37;;;4.23;;
16737;SDS011;17906;47.684;10.806;2023-01-30T06:27:11;9.60;;;3.63;;
16737;SDS011;17906;47.684;10.806;2023-01-30T06:29:38;17.50;;;3.67;;
16737;SDS011;17906;47.684;10.806;2023-01-30T06:32:05;14.33;;;3.90;;
16737;SDS011;17906;47.684;10.806;2023-01-30T06:34:33;11.00;;;3.73;;
16737;SDS011;17906;47.684;10.806;2023-01-30T06:37:00;11.00;;;3.83;;
16737;SDS011;17906;47.684;10.806;2023-01-30T06:39:27;7.80;;;3.53;;
16737;SDS011;17906;47.684;10.806;2023-01-30T06:41:53;7.97;;;2.83;;
16737;SDS011;17906;47.684;10.806;2023-01-30T06:44:21;30.87;;;7.27;;
16737;SDS011;17906;47.684;10.806;2023-01-30T06:46:48;51.10;;;15.50;;
16737;SDS011;17906;47.684;10.806;2023-01-30T06:49:14;51.00;;;17.37;;
16737;SDS011;17906;47.684;10.806;2023-01-30T06:51:41;56.97;;;15.50;;
16737;SDS011;17906;47.684;10.806;2023-01-30T06:54:07;17.43;;;6.47;;
16737;SDS011;17906;47.684;10.806;2023-01-30T06:56:34;12.70;;;5.43;;
16737;SDS011;17906;47.684;10.806;2023-01-30T06:59:00;13.23;;;5.00;;
16737;SDS011;17906;47.684;10.806;2023-01-30T07:01:28;12.27;;;4.80;;
16737;SDS011;17906;47.684;10.806;2023-01-30T07:03:55;16.60;;;5.40;;
16737;SDS011;17906;47.684;10.806;2023-01-30T07:06:21;19.20;;;7.73;;
16737;SDS011;17906;47.684;10.806;2023-01-30T07:08:48;16.47;;;7.40;;
16737;SDS011;17906;47.684;10.806;2023-01-30T07:11:14;10.63;;;4.23;;
16737;SDS011;17906;47.684;10.806;2023-01-30T07:13:41;17.30;;;4.80;;
16737;SDS011;17906;47.684;10.806;2023-01-30T07:16:07;10.40;;;3.90;;
16737;SDS011;17906;47.684;10.806;2023-01-30T07:18:35;14.37;;;4.70;;
16737;SDS011;17906;47.684;10.806;2023-01-30T07:21:02;11.17;;;3.97;;
16737;SDS011;17906;47.684;10.806;2023-01-30T07:23:28;10.70;;;3.50;;
16737;SDS011;17906;47.684;10.806;2023-01-30T07:25:55;17.13;;;5.43;;
16737;SDS011;17906;47.684;10.806;2023-01-30T07:28:22;19.00;;;6.63;;
16737;SDS011;17906;47.684;10.806;2023-01-30T07:30:48;21.80;;;7.63;;
16737;SDS011;17906;47.684;10.806;2023-01-30T07:33:17;19.80;;;7.00;;
16737;SDS011;17906;47.684;10.806;2023-01-30T07:35:45;24.23;;;8.47;;
16737;SDS011;17906;47.684;10.806;2023-01-30T07:38:11;32.93;;;7.97;;
16737;SDS011;17906;47.684;10.806;2023-01-30T07:40:38;19.67;;;6.80;;
16737;SDS011;17906;47.684;10.806;2023-01-30T07:43:05;23.20;;;6.90;;
16737;SDS011;17906;47.684;10.806;2023-01-30T07:45:34;18.77;;;6.47;;
16737;SDS011;17906;47.684;10.806;2023-01-30T07:48:04;13.00;;;5.30;;
16737;SDS011;17906;47.684;10.806;2023-01-30T07:50:32;13.03;;;5.00;;
16737;SDS011;17906;47.684;10.806;2023-01-30T07:52:59;15.70;;;6.20;;
16737;SDS011;17906;47.684;10.806;2023-01-30T07:55:28;12.83;;;5.50;;
16737;SDS011;17906;47.684;10.806;2023-01-30T07:57:54;17.77;;;5.63;;
16737;SDS011;17906;47.684;10.806;2023-01-30T08:00:21;19.93;;;8.03;;
16737;SDS011;17906;47.684;10.806;2023-01-30T08:02:48;27.87;;;8.77;;
16737;SDS011;17906;47.684;10.806;2023-01-30T08:05:14;27.43;;;7.97;;
16737;SDS011;17906;47.684;10.806;2023-01-30T08:07:41;20.60;;;7.80;;
16737;SDS011;17906;47.684;10.806;2023-01-30T08:10:10;21.47;;;6.80;;
16737;SDS011;17906;47.684;10.806;2023-01-30T08:12:36;22.40;;;8.63;;
16737;SDS011;17906;47.684;10.806;2023-01-30T08:15:04;25.87;;;8.37;;
16737;SDS011;17906;47.684;10.806;2023-01-30T08:17:32;16.17;;;6.57;;
16737;SDS011;17906;47.684;10.806;2023-01-30T08:19:59;16.23;;;5.97;;
16737;SDS011;17906;47.684;10.806;2023-01-30T08:22:25;18.50;;;6.13;;
16737;SDS011;17906;47.684;10.806;2023-01-30T08:24:53;15.37;;;6.30;;
16737;SDS011;17906;47.684;10.806;2023-01-30T08:27:21;18.90;;;7.17;;
16737;SDS011;17906;47.684;10.806;2023-01-30T08:29:48;15.93;;;6.43;;
16737;SDS011;17906;47.684;10.806;2023-01-30T08:32:15;13.30;;;5.47;;
16737;SDS011;17906;47.684;10.806;2023-01-30T08:34:41;21.50;;;8.00;;
16737;SDS011;17906;47.684;10.806;2023-01-30T08:37:07;15.60;;;6.50;;
16737;SDS011;17906;47.684;10.806;2023-01-30T08:39:34;16.67;;;6.77;;
16737;SDS011;17906;47.684;10.806;2023-01-30T08:42:01;16.93;;;6.30;;
16737;SDS011;17906;47.684;10.806;2023-01-30T08:44:28;16.00;;;6.20;;
16737;SDS011;17906;47.684;10.806;2023-01-30T08:46:55;15.57;;;6.70;;
16737;SDS011;17906;47.684;10.806;2023-01-30T08:49:22;17.50;;;6.80;;
16737;SDS011;17906;47.684;10.806;2023-01-30T08:51:48;16.53;;;6.60;;
16737;SDS011;17906;47.684;10.806;2023-01-30T08:54:15;17.13;;;6.37;;
16737;SDS011;17906;47.684;10.806;2023-01-30T08:56:41;16.03;;;6.83;;
16737;SDS011;17906;47.684;10.806;2023-01-30T08:59:08;14.00;;;6.10;;
16737;SDS011;17906;47.684;10.806;2023-01-30T09:01:36;16.33;;;6.17;;
16737;SDS011;17906;47.684;10.806;2023-01-30T09:04:03;13.37;;;6.20;;
16737;SDS011;17906;47.684;10.806;2023-01-30T09:06:29;15.63;;;6.07;;
16737;SDS011;17906;47.684;10.806;2023-01-30T09:08:57;15.07;;;6.03;;
16737;SDS011;17906;47.684;10.806;2023-01-30T09:11:24;15.93;;;6.60;;
16737;SDS011;17906;47.684;10.806;2023-01-30T09:13:50;13.77;;;6.13;;
16737;SDS011;17906;47.684;10.806;2023-01-30T09:16:17;13.90;;;5.90;;
16737;SDS011;17906;47.684;10.806;2023-01-30T09:18:45;13.50;;;6.43;;
16737;SDS011;17906;47.684;10.806;2023-01-30T09:21:11;15.57;;;6.67;;
16737;SDS011;17906;47.684;10.806;2023-01-30T09:23:39;14.67;;;6.40;;
16737;SDS011;17906;47.684;10.806;2023-01-30T09:26:05;14.33;;;6.10;;
16737;SDS011;17906;47.684;10.806;2023-01-30T09:28:32;13.53;;;6.10;;
16737;SDS011;17906;47.684;10.806;2023-01-30T09:31:00;17.20;;;7.03;;
16737;SDS011;17906;47.684;10.806;2023-01-30T09:33:27;20.67;;;7.80;;
16737;SDS011;17906;47.684;10.806;2023-01-30T09:35:55;15.27;;;7.00;;
16737;SDS011;17906;47.684;10.806;2023-01-30T09:38:22;13.07;;;6.10;;
16737;SDS011;17906;47.684;10.806;2023-01-30T09:40:52;14.40;;;6.13;;
16737;SDS011;17906;47.684;10.806;2023-01-30T09:43:33;15.40;;;6.40;;
16737;SDS011;17906;47.684;10.806;2023-01-30T09:46:13;16.60;;;6.67;;
16737;SDS011;17906;47.684;10.806;2023-01-30T09:48:51;15.90;;;6.67;;
16737;SDS011;17906;47.684;10.806;2023-01-30T09:51:32;16.57;;;7.10;;
16737;SDS011;17906;47.684;10.806;2023-01-30T09:57:00;16.87;;;7.00;;
16737;SDS011;17906;47.684;10.806;2023-01-30T09:59:41;17.47;;;6.90;;
16737;SDS011;17906;47.684;10.806;2023-01-30T10:02:21;15.13;;;6.93;;
16737;SDS011;17906;47.684;10.806;2023-01-30T10:04:54;18.10;;;7.13;;
16737;SDS011;17906;47.684;10.806;2023-01-30T10:07:25;15.27;;;6.37;;
16737;SDS011;17906;47.684;10.806;2023-01-30T10:09:58;20.70;;;7.87;;
16737;SDS011;17906;47.684;10.806;2023-01-30T10:12:37;17.63;;;6.60;;
16737;SDS011;17906;47.684;10.806;2023-01-30T10:15:16;16.43;;;6.47;;
16737;SDS011;17906;47.684;10.806;2023-01-30T10:17:58;18.20;;;6.60;;
16737;SDS011;17906;47.684;10.806;2023-01-30T10:20:47;15.47;;;6.50;;
16737;SDS011;17906;47.684;10.806;2023-01-30T10:23:35;13.20;;;6.50;;
16737;SDS011;17906;47.684;10.806;2023-01-30T10:26:12;11.27;;;5.23;;
16737;SDS011;17906;47.684;10.806;2023-01-30T10:28:41;12.40;;;5.17;;
16737;SDS011;17906;47.684;10.806;2023-01-30T10:31:12;11.83;;;5.23;;
16737;SDS011;17906;47.684;10.806;2023-01-30T10:33:42;13.57;;;5.30;;
16737;SDS011;17906;47.684;10.806;2023-01-30T10:36:24;9.70;;;4.20;;
16737;SDS011;17906;47.684;10.806;2023-01-30T10:38:57;9.13;;;4.13;;
16737;SDS011;17906;47.684;10.806;2023-01-30T10:41:27;12.50;;;4.33;;
16737;SDS011;17906;47.684;10.806;2023-01-30T10:43:58;8.77;;;3.87;;
16737;SDS011;17906;47.684;10.806;2023-01-30T10:49:28;8.00;;;3.37;;
16737;SDS011;17906;47.684;10.806;2023-01-30T10:52:04;6.10;;;2.40;;
16737;SDS011;17906;47.684;10.806;2023-01-30T10:54:46;6.57;;;3.27;;
16737;SDS011;17906;47.684;10.806;2023-01-30T10:57:22;6.80;;;3.17;;
16737;SDS011;17906;47.684;10.806;2023-01-30T10:59:57;6.03;;;2.83;;
16737;SDS011;17906;47.684;10.806;2023-01-30T11:02:31;6.07;;;2.50;;
16737;SDS011;17906;47.684;10.806;2023-01-30T11:05:08;6.20;;;2.60;;
16737;SDS011;17906;47.684;10.806;2023-01-30T11:07:39;6.30;;;2.80;;
16737;SDS011;17906;47.684;10.806;2023-01-30T11:10:13;6.20;;;2.93;;
16737;SDS011;17906;47.684;10.806;2023-01-30T11:12:41;6.73;;;2.60;;
16737;SDS011;17906;47.684;10.806;2023-01-30T11:15:08;5.67;;;2.53;;
16737;SDS011;17906;47.684;10.806;2023-01-30T11:17:36;5.03;;;2.20;;
16737;SDS011;17906;47.684;10.806;2023-01-30T11:20:10;6.70;;;2.13;;
16737;SDS011;17906;47.684;10.806;2023-01-30T11:22:44;5.17;;;2.30;;
16737;SDS011;17906;47.684;10.806;2023-01-30T11:25:14;3.57;;;2.00;;
16737;SDS011;17906;47.684;10.806;2023-01-30T11:27:44;4.43;;;2.20;;
16737;SDS011;17906;47.684;10.806;2023-01-30T11:30:19;5.83;;;2.10;;
16737;SDS011;17906;47.684;10.806;2023-01-30T11:32:47;4.10;;;1.77;;
16737;SDS011;17906;47.684;10.806;2023-01-30T11:35:25;5.27;;;2.37;;
16737;SDS011;17906;47.684;10.806;2023-01-30T11:37:53;5.97;;;2.53;;
16737;SDS011;17906;47.684;10.806;2023-01-30T11:40:38;6.37;;;2.27;;
16737;SDS011;17906;47.684;10.806;2023-01-30T11:43:09;6.20;;;2.37;;
16737;SDS011;17906;47.684;10.806;2023-01-30T11:45:37;3.73;;;1.73;;
16737;SDS011;17906;47.684;10.806;2023-01-30T11:48:10;3.63;;;1.70;;
16737;SDS011;17906;47.684;10.806;2023-01-30T11:50:41;3.10;;;1.63;;
16737;SDS011;17906;47.684;10.806;2023-01-30T11:53:20;2.73;;;1.33;;
16737;SDS011;17906;47.684;10.806;2023-01-30T11:55:56;3.20;;;1.47;;
16737;SDS011;17906;47.684;10.806;2023-01-30T11:58:28;1.73;;;1.00;;
16737;SDS011;17906;47.684;10.806;2023-01-30T12:00:56;1.03;;;0.70;;
16737;SDS011;17906;47.684;10.806;2023-01-30T12:03:24;1.03;;;0.60;;
16737;SDS011;17906;47.684;10.806;2023-01-30T12:05:53;0.57;;;0.30;;
16737;SDS011;17906;47.684;10.806;2023-01-30T12:08:23;2.07;;;0.60;;
16737;SDS011;17906;47.684;10.806;2023-01-30T12:10:52;0.50;;;0.30;;
16737;SDS011;17906;47.684;10.806;2023-01-30T12:13:27;1.13;;;0.40;;
16737;SDS011;17906;47.684;10.806;2023-01-30T12:16:03;0.90;;;0.43;;
16737;SDS011;17906;47.684;10.806;2023-01-30T12:18:42;3.63;;;0.33;;
16737;SDS011;17906;47.684;10.806;2023-01-30T12:21:16;3.50;;;0.87;;
16737;SDS011;17906;47.684;10.806;2023-01-30T12:23:55;1.10;;;0.50;;
16737;SDS011;17906;47.684;10.806;2023-01-30T12:26:28;1.00;;;0.50;;
16737;SDS011;17906;47.684;10.806;2023-01-30T12:29:00;1.00;;;0.50;;
16737;SDS011;17906;47.684;10.806;2023-01-30T12:31:32;1.07;;;0.60;;
16737;SDS011;17906;47.684;10.806;2023-01-30T12:34:03;0.90;;;0.53;;
16737;SDS011;17906;47.684;10.806;2023-01-30T12:36:32;2.70;;;0.67;;
16737;SDS011;17906;47.684;10.806;2023-01-30T12:39:13;1.10;;;0.50;;
16737;SDS011;17906;47.684;10.806;2023-01-30T12:42:11;4.07;;;0.67;;
16737;SDS011;17906;47.684;10.806;2023-01-30T12:44:55;0.93;;;0.50;;
16737;SDS011;17906;47.684;10.806;2023-01-30T12:47:37;0.97;;;0.50;;
16737;SDS011;17906;47.684;10.806;2023-01-30T12:53:11;1.60;;;0.60;;
16737;SDS011;17906;47.684;10.806;2023-01-30T12:55:50;2.53;;;0.77;;
16737;SDS011;17906;47.684;10.806;2023-01-30T12:58:26;1.50;;;0.70;;
16737;SDS011;17906;47.684;10.806;2023-01-30T13:01:01;1.90;;;0.70;;
16737;SDS011;17906;47.684;10.806;2023-01-30T13:03:35;1.57;;;0.60;;
16737;SDS011;17906;47.684;10.806;2023-01-30T13:06:06;2.10;;;0.83;;
16737;SDS011;17906;47.684;10.806;2023-01-30T13:08:48;2.13;;;0.70;;
16737;SDS011;17906;47.684;10.806;2023-01-30T13:11:32;0.90;;;0.50;;
16737;SDS011;17906;47.684;10.806;2023-01-30T13:14:08;1.87;;;0.87;;
16737;SDS011;17906;47.684;10.806;2023-01-30T13:16:44;1.13;;;0.47;;
16737;SDS011;17906;47.684;10.806;2023-01-30T13:19:22;1.07;;;0.50;;
16737;SDS011;17906;47.684;10.806;2023-01-30T13:22:00;1.33;;;0.60;;
16737;SDS011;17906;47.684;10.806;2023-01-30T13:24:32;1.17;;;0.60;;
16737;SDS011;17906;47.684;10.806;2023-01-30T13:27:12;1.10;;;0.60;;
16737;SDS011;17906;47.684;10.806;2023-01-30T13:29:43;0.80;;;0.30;;
16737;SDS011;17906;47.684;10.806;2023-01-30T13:32:13;5.60;;;0.40;;
16737;SDS011;17906;47.684;10.806;2023-01-30T13:34:46;0.83;;;0.40;;
16737;SDS011;17906;47.684;10.806;2023-01-30T13:37:14;0.67;;;0.30;;
16737;SDS011;17906;47.684;10.806;2023-01-30T13:39:42;0.57;;;0.40;;
16737;SDS011;17906;47.684;10.806;2023-01-30T13:42:15;0.63;;;0.40;;
16737;SDS011;17906;47.684;10.806;2023-01-30T13:44:51;1.10;;;0.43;;
16737;SDS011;17906;47.684;10.806;2023-01-30T13:47:22;2.53;;;0.27;;
16737;SDS011;17906;47.684;10.806;2023-01-30T13:50:09;0.97;;;0.47;;
16737;SDS011;17906;47.684;10.806;2023-01-30T13:52:50;0.77;;;0.30;;
16737;SDS011;17906;47.684;10.806;2023-01-30T13:55:25;0.87;;;0.40;;
16737;SDS011;17906;47.684;10.806;2023-01-30T13:58:00;1.17;;;0.53;;
16737;SDS011;17906;47.684;10.806;2023-01-30T14:00:36;0.70;;;0.30;;
16737;SDS011;17906;47.684;10.806;2023-01-30T14:06:11;0.90;;;0.40;;
16737;SDS011;17906;47.684;10.806;2023-01-30T14:08:53;1.20;;;0.50;;
16737;SDS011;17906;47.684;10.806;2023-01-30T14:11:37;0.43;;;0.30;;
16737;SDS011;17906;47.684;10.806;2023-01-30T14:17:09;1.27;;;0.50;;
16737;SDS011;17906;47.684;10.806;2023-01-30T14:19:38;0.93;;;0.30;;
16737;SDS011;17906;47.684;10.806;2023-01-30T14:37:43;1.50;;;0.70;;
16737;SDS011;17906;47.684;10.806;2023-01-30T14:43:26;1.80;;;0.80;;
16737;SDS011;17906;47.684;10.806;2023-01-30T14:46:02;2.50;;;0.97;;
16737;SDS011;17906;47.684;10.806;2023-01-30T14:48:31;1.40;;;0.70;;
16737;SDS011;17906;47.684;10.806;2023-01-30T14:51:16;2.73;;;0.80;;
16737;SDS011;17906;47.684;10.806;2023-01-30T14:53:48;1.60;;;0.70;;
16737;SDS011;17906;47.684;10.806;2023-01-30T14:56:17;3.23;;;0.80;;
16737;SDS011;17906;47.684;10.806;2023-01-30T14:58:51;1.33;;;0.60;;
16737;SDS011;17906;47.684;10.806;2023-01-30T15:01:23;2.00;;;0.70;;
16737;SDS011;17906;47.684;10.806;2023-01-30T15:03:50;1.63;;;0.80;;
16737;SDS011;17906;47.684;10.806;2023-01-30T15:06:17;2.50;;;0.70;;
16737;SDS011;17906;47.684;10.806;2023-01-30T15:08:44;1.57;;;0.83;;
16737;SDS011;17906;47.684;10.806;2023-01-30T15:11:14;1.43;;;0.73;;
16737;SDS011;17906;47.684;10.806;2023-01-30T15:13:52;2.87;;;0.60;;
16737;SDS011;17906;47.684;10.806;2023-01-30T15:16:38;1.93;;;0.73;;
16737;SDS011;17906;47.684;10.806;2023-01-30T15:19:20;1.67;;;0.70;;
16737;SDS011;17906;47.684;10.806;2023-01-30T15:21:59;1.00;;;0.60;;
16737;SDS011;17906;47.684;10.806;2023-01-30T15:27:50;1.77;;;0.87;;
16737;SDS011;17906;47.684;10.806;2023-01-30T15:30:31;3.00;;;0.90;;